Latest Weather Observations for Red Rocks Point

IDW60801

Issued at 1:03 pm WST Sunday 31 July 2016 (issued every 30 minutes, with the page automatically refreshed every 10 minutes)

About weather observations | Map of weather stations | Latest weather observations for WA | Other Formats
Station Details ID: 011053 Name: RED ROCKS POINT Lat: -32.20 Lon: 127.53 Height: 3.1 m
Data from the previous 72 hours. | See also: Recent months at Red Rocks Point
Date/Time
WST
Temp
°C
App
Temp
°C
Dew
Point
°C
Rel
Hum
%
Delta-T
°C
Wind Press
QNH
hPa
Press
MSL
hPa
Rain since
9am
mm
Dir  Spd
km/h
Gust
km/h
Spd
kts
Gust
kts
31/01:00pm 18.9 13.7 7.4 47 5.8 WSW 24 39 13 21 1010.8 1010.8 0.0
31/12:30pm 18.8 13.5 8.5 51 5.3 WSW 26 39 14 21 1010.9 1010.9 0.0
31/12:00pm 19.0 14.1 6.8 45 6.1 WSW 22 37 12 20 1011.2 1011.2 0.0
31/11:30am 19.1 14.1 6.6 44 6.2 WSW 22 33 12 18 1011.6 1011.6 0.0
31/11:00am 19.9 14.9 4.4 36 7.5 WSW 20 37 11 20 1012.2 1012.2 0.0
31/10:30am 19.1 14.3 5.6 41 6.6 W 20 33 11 18 1012.6 1012.6 0.0
31/10:00am 18.4 14.0 6.6 46 5.9 W 19 28 10 15 1013.0 1013.0 0.0
31/09:30am 17.6 13.9 7.9 53 4.9 W 17 26 9 14 1013.3 1013.3 0.0
31/09:00am 16.4 12.6 9.1 62 3.8 WNW 19 30 10 16 1013.4 1013.4 0.0
31/08:30am 15.6 13.3 10.4 71 2.7 NW 13 19 7 10 1013.6 1013.6 0.0
31/08:00am 14.0 11.3 10.4 79 1.9 NW 15 20 8 11 1013.5 1013.5 0.0
31/07:30am 12.8 10.6 10.9 88 1.0 NW 13 20 7 11 1013.4 1013.4 0.0
31/07:00am 11.9 9.6 10.6 92 0.7 NW 13 19 7 10 1013.1 1013.1 0.0
31/06:30am 12.0 9.8 10.9 93 0.6 NW 13 17 7 9 1012.7 1012.7 0.0
31/06:00am 12.2 10.1 11.3 94 0.5 NW 13 17 7 9 1012.4 1012.4 0.0
31/05:30am 12.0 9.9 11.1 94 0.5 NW 13 17 7 9 1012.0 1012.0 0.0
31/05:00am 11.8 9.6 10.9 94 0.5 NNW 13 19 7 10 1011.6 1011.6 0.0
31/04:30am 12.2 9.8 11.3 94 0.5 NNW 15 20 8 11 1011.5 1011.5 0.0
31/04:00am 12.0 9.1 11.1 94 0.5 N 17 20 9 11 1011.5 1011.5 0.0
31/03:30am 11.7 9.1 10.6 93 0.6 N 15 20 8 11 1011.6 1011.6 0.0
31/03:00am 11.5 8.8 10.4 93 0.6 N 15 20 8 11 1011.6 1011.6 0.0
31/02:30am 11.3 8.5 10.0 92 0.7 N 15 20 8 11 1012.0 1012.0 0.0
31/02:00am 11.7 9.0 10.3 91 0.7 N 15 20 8 11 1012.3 1012.3 0.0
31/01:30am 11.9 9.1 10.1 89 0.9 N 15 20 8 11 1012.6 1012.6 0.0
31/01:00am 12.3 9.6 10.4 88 1.0 N 15 20 8 11 1013.0 1013.0 0.0
31/12:30am 12.2 9.4 10.1 87 1.1 NNE 15 20 8 11 1013.4 1013.4 0.0
31/12:00am 12.1 9.6 9.8 86 1.2 N 13 19 7 10 1013.9 1013.9 0.0
 
Date/Time
WST
Temp
°C
App
Temp
°C
Dew
Point
°C
Rel
Hum
%
Delta-T
°C
Wind Press
QNH
hPa
Press
MSL
hPa
Rain since
9am
mm
Dir  Spd
km/h
Gust
km/h
Spd
kts
Gust
kts
30/11:30pm 12.5 9.3 9.9 84 1.3 NNE 17 20 9 11 1014.3 1014.3 0.0
30/11:00pm 12.7 9.4 9.7 82 1.5 NNE 17 20 9 11 1014.8 1014.8 0.0
30/10:30pm 13.1 9.9 9.9 81 1.6 NNE 17 24 9 13 1015.1 1015.1 0.0
30/10:00pm 13.3 9.6 9.5 78 1.9 NNE 19 26 10 14 1015.4 1015.4 0.0
30/09:30pm 13.3 9.5 9.2 76 2.1 NNE 19 24 10 13 1015.6 1015.6 0.0
30/09:00pm 12.6 9.8 8.5 76 2.0 NE 13 19 7 10 1015.9 1015.9 0.0
30/08:30pm 12.4 9.4 7.7 73 2.3 NE 13 17 7 9 1016.0 1016.0 0.0
30/08:00pm 12.6 9.5 8.7 77 1.9 NE 15 17 8 9 1016.0 1016.0 0.0
30/07:30pm 12.4 9.9 9.6 83 1.4 NE 13 17 7 9 1016.0 1016.0 0.0
30/07:00pm 12.4 10.1 10.5 88 1.0 NE 13 15 7 8 1016.0 1016.0 0.0
30/06:30pm 12.4 10.5 10.6 89 0.9 NE 11 13 6 7 1015.7 1015.7 0.0
30/06:00pm 12.7 11.3 10.8 88 1.0 ENE 9 11 5 6 1015.2 1015.2 0.0
30/05:30pm 14.1 12.6 11.8 86 1.2 E 11 13 6 7 1015.3 1015.3 0.0
30/05:00pm 14.6 12.8 12.1 85 1.4 E 13 15 7 8 1015.1 1015.1 0.0
30/04:30pm 15.1 13.1 12.6 85 1.4 E 15 17 8 9 1015.1 1015.1 0.0
30/04:00pm 15.8 14.2 12.9 83 1.6 E 13 15 7 8 1015.2 1015.2 0.0
30/03:30pm 16.3 15.1 12.8 80 1.9 E 11 11 6 6 1015.2 1015.2 0.0
30/03:00pm 17.3 16.5 12.8 75 2.5 ESE 9 11 5 6 1014.9 1014.9 0.0
30/02:30pm 17.3 17.9 12.0 71 2.9 CALM 0 0 0 0 1015.0 1015.0 0.0
30/02:00pm 17.9 18.6 12.1 69 3.2 CALM 0 0 0 0 1015.1 1015.1 0.0
30/01:30pm 18.4 17.4 12.2 67 3.4 SSE 9 13 5 7 1014.9 1014.9 0.0
30/01:00pm 19.5 18.0 11.8 61 4.3 WSW 11 15 6 8 1015.2 1015.2 0.0
30/12:30pm 18.4 17.0 12.2 67 3.4 WSW 11 17 6 9 1015.8 1015.8 0.0
30/12:00pm 18.9 18.2 13.3 70 3.2 SW 9 17 5 9 1015.7 1015.7 0.0
30/11:30am 18.0 16.9 13.1 73 2.8 SW 11 17 6 9 1015.8 1015.8 0.0
30/11:00am 18.5 15.6 12.3 67 3.4 SW 19 26 10 14 1016.0 1016.0 0.0
30/10:30am 19.6 16.2 11.4 59 4.5 WSW 20 28 11 15 1015.9 1015.9 0.0
30/10:00am 20.2 16.4 11.1 56 5.0 WSW 22 33 12 18 1015.5 1015.5 0.0
30/09:30am 20.3 17.1 11.2 56 5.0 WSW 19 26 10 14 1015.3 1015.3 0.0
30/09:00am 18.9 16.0 11.0 60 4.3 W 17 28 9 15 1015.3 1015.3 0.0
30/08:30am 20.5 17.9 9.4 49 5.9 W 13 26 7 14 1015.2 1015.2 0.0
30/08:00am 19.0 16.5 8.4 50 5.5 NW 11 15 6 8 1014.5 1014.5 0.0
30/07:30am 18.4 15.8 7.8 50 5.4 NW 11 17 6 9 1013.9 1013.9 0.0
30/07:00am 18.7 15.6 7.2 47 5.8 NW 13 24 7 13 1013.8 1013.8 0.0
30/06:30am 18.5 15.6 6.4 45 6.0 NW 11 15 6 8 1013.1 1013.1 0.0
30/06:00am 18.4 15.3 7.2 48 5.6 NW 13 22 7 12 1013.1 1013.1 0.0
30/05:30am 19.4 15.0 4.7 38 7.1 WNW 17 26 9 14 1012.9 1012.9 0.0
30/05:00am 19.1 15.0 4.1 37 7.1 NW 15 22 8 12 1012.3 1012.3 0.0
30/04:30am 18.9 13.7 3.5 36 7.2 NW 20 32 11 17 1012.0 1012.0 0.0
30/04:00am 18.4 14.1 3.5 37 7.0 NNW 15 22 8 12 1011.6 1011.6 0.0
30/03:30am 17.6 13.8 3.9 40 6.4 NNW 13 19 7 10 1011.4 1011.4 0.0
30/03:00am 17.9 13.7 3.8 39 6.6 NNW 15 20 8 11 1011.6 1011.6 0.0
30/02:30am 18.2 13.7 4.4 40 6.6 NNW 17 22 9 12 1011.8 1011.8 0.0
30/02:00am 17.9 13.9 4.8 42 6.3 NNW 15 20 8 11 1012.2 1012.2 0.0
30/01:30am 17.8 13.9 5.4 44 6.0 N 15 19 8 10 1012.4 1012.4 0.0
30/01:00am 17.8 14.4 5.7 45 5.9 N 13 20 7 11 1012.6 1012.6 0.0
30/12:30am 18.4 15.3 5.6 43 6.2 NNW 11 17 6 9 1012.9 1012.9 0.0
30/12:00am 18.8 15.3 5.3 41 6.6 NNW 13 20 7 11 1012.9 1012.9 0.0
 
Date/Time
WST
Temp
°C
App
Temp
°C
Dew
Point
°C
Rel
Hum
%
Delta-T
°C
Wind Press
QNH
hPa
Press
MSL
hPa
Rain since
9am
mm
Dir  Spd
km/h
Gust
km/h
Spd
kts
Gust
kts
29/11:30pm 18.8 15.2 4.9 40 6.7 NNW 13 20 7 11 1013.2 1013.2 0.0
29/11:00pm 18.8 14.6 3.8 37 7.1 NNW 15 20 8 11 1013.5 1013.5 0.0
29/10:30pm 18.9 15.1 3.9 37 7.1 NNW 13 20 7 11 1013.8 1013.8 0.0
29/10:00pm 19.0 15.7 4.4 38 7.0 N 11 19 6 10 1014.0 1014.0 0.0
29/09:30pm 19.0 15.2 4.0 37 7.1 N 13 20 7 11 1014.2 1014.2 0.0
29/09:00pm 19.4 16.0 4.0 36 7.3 N 11 17 6 9 1014.5 1014.5 0.0
29/08:30pm 19.4 16.0 4.0 36 7.3 N 11 13 6 7 1014.7 1014.7 0.0
29/08:00pm 19.4 15.6 4.0 36 7.3 N 13 17 7 9 1014.8 1014.8 0.0
29/07:30pm 18.9 15.6 4.3 38 7.0 N 11 15 6 8 1014.8 1014.8 0.0
29/07:00pm 18.7 15.7 4.1 38 6.9 N 9 11 5 6 1015.1 1015.1 0.0
29/06:30pm 19.0 15.9 3.6 36 7.2 N 9 13 5 7 1014.9 1014.9 0.0
29/06:00pm 19.7 16.6 3.4 34 7.7 N 9 11 5 6 1014.9 1014.9 0.0
29/05:30pm 21.1 17.6 3.3 31 8.5 N 11 15 6 8 1014.8 1014.8 0.0
29/05:00pm 22.0 18.4 3.2 29 9.0 N 11 19 6 10 1014.7 1014.7 0.0
29/04:30pm 23.9 19.2 3.2 26 10.0 NNW 17 22 9 12 1014.6 1014.6 0.0
29/04:00pm 24.2 20.8 4.0 27 9.9 NNW 11 17 6 9 1014.6 1014.6 0.0
29/03:30pm 24.6 19.9 3.3 25 10.4 N 17 28 9 15 1014.8 1014.8 0.0
29/03:00pm 24.9 20.6 5.2 28 10.0 NNW 17 26 9 14 1015.2 1015.2 0.0
29/02:41pm 23.9 20.5 5.8 31 9.2 N 13 24 7 13 1015.4 1015.4 0.0
29/02:30pm 18.9 17.3 10.2 57 4.7 ENE 9 19 5 10 1015.6 1015.6 0.0
29/02:00pm 16.9 15.0 11.8 72 2.8 E 13 20 7 11 1016.1 1016.1 0.0
29/01:30pm 17.5 16.8 12.0 70 3.0 E 7 13 4 7 1016.4 1016.4 0.0
29/01:00pm 17.3 16.3 11.1 67 3.3 ENE 7 11 4 6 1016.9 1016.9 0.0
29/12:30pm 17.6 16.5 10.7 64 3.7 ESE 7 13 4 7 1017.5 1017.5 0.0
29/12:00pm 17.9 16.8 11.9 68 3.3 E 9 15 5 8 1018.1 1018.1 0.0
29/11:30am 17.7 16.1 11.7 68 3.3 SE 11 15 6 8 1018.9 1018.9 0.0
29/11:00am 18.2 17.0 11.5 65 3.6 SSE 9 13 5 7 1019.7 1019.7 0.0
29/10:30am 21.3 18.1 6.8 39 7.4 N 13 17 7 9 1020.1 1020.1 0.0
29/10:00am 21.2 18.7 6.7 39 7.3 NNW 9 17 5 9 1020.4 1020.4 0.0
29/09:30am 19.1 15.5 6.9 45 6.1 N 15 22 8 12 1020.7 1020.7 0.0
29/09:00am 17.5 14.8 7.3 51 5.1 NNW 11 17 6 9 1021.0 1021.0 0.0
29/08:30am 15.7 12.5 6.7 55 4.4 N 13 17 7 9 1021.1 1021.1 0.0
29/08:00am 13.5 10.4 7.1 65 3.1 NNW 13 19 7 10 1021.0 1021.0 0.0
29/07:30am 10.5 6.7 5.9 73 2.1 N 15 19 8 10 1021.2 1021.2 0.0
29/07:00am 9.9 6.4 5.3 73 2.1 N 13 17 7 9 1021.2 1021.2 0.0
29/06:30am 9.9 5.7 5.5 74 2.0 N 17 19 9 10 1021.0 1021.0 0.0
29/06:00am 9.4 5.2 5.6 77 1.7 NNW 17 20 9 11 1021.0 1021.0 0.0
29/05:30am 9.3 5.2 6.0 80 1.5 N 17 20 9 11 1020.8 1020.8 0.0
29/05:00am 8.0 5.4 6.1 88 0.9 NNE 9 11 5 6 1020.7 1020.7 0.0
29/04:30am 8.0 6.0 6.3 89 0.8 N 6 7 3 4 1020.9 1020.9 0.0
29/04:00am 8.0 6.0 6.3 89 0.8 NE 6 7 3 4 1020.9 1020.9 0.0
29/03:30am 7.6 5.9 5.7 88 0.9 NNE 4 7 2 4 1021.2 1021.2 0.0
29/03:00am 8.9 6.9 7.0 88 0.9 NNE 7 9 4 5 1021.5 1021.5 0.0
29/02:30am 7.9 7.0 6.0 88 0.9 CALM 0 0 0 0 1021.6 1021.6 0.0
29/02:00am 8.5 7.3 6.3 86 1.0 NE 2 6 1 3 1021.8 1021.8 0.0
29/01:30am 9.2 8.1 7.0 86 1.0 N 2 9 1 5 1021.8 1021.8 0.0
29/01:00am 9.5 7.5 7.3 86 1.0 N 7 9 4 5 1022.0 1022.0 0.0
29/12:30am 10.1 8.2 7.7 85 1.2 NNE 7 9 4 5 1022.0 1022.0 0.0
29/12:00am 10.3 8.7 7.9 85 1.2 N 6 9 3 5 1022.2 1022.2 0.0
 
Date/Time
WST
Temp
°C
App
Temp
°C
Dew
Point
°C
Rel
Hum
%
Delta-T
°C
Wind Press
QNH
hPa
Press
MSL
hPa
Rain since
9am
mm
Dir  Spd
km/h
Gust
km/h
Spd
kts
Gust
kts
28/11:30pm 10.2 9.6 7.6 84 1.2 CALM 0 0 0 0 1022.3 1022.3 0.0
28/11:00pm 10.9 9.2 8.3 84 1.3 NNE 7 9 4 5 1022.3 1022.3 0.0
28/10:30pm 11.3 9.6 8.5 83 1.4 NE 7 9 4 5 1022.5 1022.5 0.0
28/10:00pm 11.5 10.5 8.7 83 1.4 ENE 4 7 2 4 1023.1 1023.1 0.0
28/09:30pm 11.8 10.2 8.8 82 1.5 ENE 7 9 4 5 1023.2 1023.2 0.0
28/09:00pm 11.5 9.4 8.4 81 1.5 NNE 9 11 5 6 1023.3 1023.3 0.0
28/08:30pm 11.6 10.1 8.3 80 1.6 NE 6 9 3 5 1023.6 1023.6 0.0
28/08:00pm 11.8 9.7 8.3 79 1.7 NNE 9 11 5 6 1023.5 1023.5 0.0
28/07:30pm 11.8 9.8 8.5 80 1.6 NNE 9 11 5 6 1023.6 1023.6 0.0
28/07:00pm 12.9 10.3 10.6 86 1.2 NE 15 19 8 10 1023.4 1023.4 0.0
28/06:30pm 13.2 11.1 11.3 88 1.0 NE 13 19 7 10 1023.7 1023.7 0.0
28/06:00pm 13.7 11.4 11.9 89 1.0 ENE 15 19 8 10 1023.6 1023.6 0.0
28/05:30pm 13.6 10.6 11.8 89 1.0 ENE 19 22 10 12 1023.4 1023.4 0.0
28/05:00pm 13.8 11.1 11.8 88 1.1 ENE 17 20 9 11 1023.6 1023.6 0.0
28/04:30pm 14.1 11.4 11.8 86 1.2 ENE 17 20 9 11 1023.4 1023.4 0.0
28/04:00pm 14.9 12.3 11.9 82 1.6 ENE 17 20 9 11 1023.2 1023.2 0.0
28/03:30pm 15.4 13.2 12.0 80 1.8 ENE 15 17 8 9 1023.4 1023.4 0.0
28/03:00pm 15.8 13.6 12.2 79 2.0 ENE 15 17 8 9 1023.6 1023.6 0.0
28/02:30pm 16.0 13.3 11.8 76 2.3 ESE 17 20 9 11 1023.5 1023.5 0.0
28/02:00pm 16.4 13.8 12.0 75 2.4 SE 17 22 9 12 1023.8 1023.8 0.0
28/01:30pm 17.1 15.3 10.9 67 3.3 SE 11 17 6 9 1023.9 1023.9 0.0

Other Formats:

Comma delimited format used in spreadsheet applications
http://www.bom.gov.au/fwo/IDW60801/IDW60801.94644.axf

JavaScript Object Notation format (JSON) in row-major order
http://www.bom.gov.au/fwo/IDW60801/IDW60801.94644.json